createdAt,value
2022-11-25T00:02:59.571Z,40.40
2022-11-25T00:08:19.559Z,40.40
2022-11-25T00:13:40.830Z,40.40
2022-11-25T00:19:00.570Z,40.50
2022-11-25T00:24:20.759Z,40.40
2022-11-25T00:29:40.848Z,40.40
2022-11-25T00:35:01.204Z,40.40
2022-11-25T00:40:21.262Z,40.30
2022-11-25T00:45:41.406Z,40.30
2022-11-25T00:51:01.452Z,40.40
2022-11-25T00:56:21.643Z,40.40
2022-11-25T01:01:41.770Z,40.40
2022-11-25T01:07:01.956Z,40.30
2022-11-25T01:12:22.116Z,40.40
2022-11-25T01:17:42.433Z,40.30
2022-11-25T01:23:02.589Z,40.30
2022-11-25T01:28:22.713Z,40.30
2022-11-25T01:33:42.768Z,40.30
2022-11-25T01:39:02.917Z,40.30
2022-11-25T01:44:22.919Z,40.30
2022-11-25T01:49:43.120Z,40.30
2022-11-25T01:55:03.309Z,40.30
2022-11-25T02:00:23.534Z,40.30
2022-11-25T02:05:43.768Z,40.30
2022-11-25T02:11:03.966Z,40.30
2022-11-25T02:16:24.059Z,40.30
2022-11-25T02:21:44.210Z,40.20
2022-11-25T02:27:04.233Z,40.20
2022-11-25T02:32:24.343Z,40.20
2022-11-25T02:37:44.526Z,40.30
2022-11-25T02:43:04.676Z,40.30
2022-11-25T02:48:40.073Z,40.20
2022-11-25T02:54:04.793Z,40.20
2022-11-25T02:59:24.886Z,40.20
2022-11-25T03:04:44.943Z,40.20
2022-11-25T03:10:05.041Z,40.20
2022-11-25T03:15:25.330Z,40.30
2022-11-25T03:20:45.352Z,40.20
2022-11-25T03:26:05.469Z,40.30
2022-11-25T03:31:25.594Z,40.30
2022-11-25T03:36:45.778Z,40.30
2022-11-25T03:42:06.005Z,40.30
2022-11-25T03:47:26.321Z,40.40
2022-11-25T03:52:46.477Z,40.40
2022-11-25T03:58:06.605Z,40.30
2022-11-25T04:03:26.688Z,40.30
2022-11-25T04:08:46.882Z,40.30
2022-11-25T04:14:06.919Z,40.20
2022-11-25T04:19:27.065Z,40.30
2022-11-25T04:24:47.244Z,40.20
2022-11-25T04:30:07.403Z,40.40
2022-11-25T04:35:27.368Z,40.30
2022-11-25T04:40:47.579Z,40.30
2022-11-25T04:46:15.243Z,40.30
2022-11-25T04:51:35.568Z,40.30
2022-11-25T04:56:55.799Z,40.30
2022-11-25T05:02:16.050Z,40.30
2022-11-25T05:07:36.152Z,40.30
2022-11-25T05:12:56.309Z,40.30
2022-11-25T05:18:16.513Z,40.40
2022-11-25T05:23:36.663Z,40.30
2022-11-25T05:28:56.704Z,40.40
2022-11-25T05:34:16.878Z,40.30
2022-11-25T05:39:37.049Z,40.30
2022-11-25T05:44:57.198Z,40.30
2022-11-25T05:50:17.386Z,40.30
2022-11-25T05:55:37.451Z,40.30
2022-11-25T06:00:57.443Z,40.30
2022-11-25T06:06:18.095Z,40.20
2022-11-25T06:11:38.122Z,40.20
2022-11-25T06:16:58.219Z,40.30
2022-11-25T06:22:18.333Z,40.40
2022-11-25T06:28:04.599Z,40.30
2022-11-25T06:33:18.258Z,40.30
2022-11-25T06:38:38.312Z,40.30
2022-11-25T06:43:58.544Z,40.30
2022-11-25T06:49:18.696Z,40.30
2022-11-25T06:54:38.775Z,40.40
2022-11-25T06:59:58.897Z,40.40
2022-11-25T07:05:19.194Z,40.30
2022-11-25T07:10:39.464Z,40.40
2022-11-25T07:15:59.793Z,40.40
2022-11-25T07:21:19.883Z,40.40
2022-11-25T07:26:40.022Z,40.40
2022-11-25T07:32:00.544Z,40.40
2022-11-25T07:37:22.482Z,40.30
2022-11-25T07:42:42.568Z,40.30
2022-11-25T07:48:02.855Z,40.30
2022-11-25T07:53:23.007Z,40.40
2022-11-25T07:58:46.044Z,40.40
2022-11-25T08:04:06.298Z,40.40
2022-11-25T08:09:26.637Z,40.40
2022-11-25T08:14:46.788Z,40.40
2022-11-25T08:20:06.881Z,40.40
2022-11-25T08:25:27.012Z,40.50
2022-11-25T08:30:47.272Z,40.50
2022-11-25T08:36:07.319Z,40.50
2022-11-25T08:41:27.503Z,40.50
2022-11-25T08:46:47.544Z,40.50
2022-11-25T08:52:07.773Z,40.50
2022-11-25T08:57:27.863Z,40.60
2022-11-25T09:02:48.085Z,40.60
2022-11-25T09:08:08.101Z,40.60
2022-11-25T09:13:28.124Z,40.60
2022-11-25T09:18:54.029Z,40.60
2022-11-25T09:24:15.917Z,40.60
2022-11-25T09:29:36.480Z,40.60
2022-11-25T09:34:56.730Z,40.60
2022-11-25T09:40:16.968Z,40.60
2022-11-25T09:45:37.144Z,40.60
2022-11-25T09:50:57.430Z,40.70
2022-11-25T09:56:17.612Z,40.70
2022-11-25T10:01:37.985Z,40.90
2022-11-25T10:06:57.930Z,40.80
2022-11-25T10:12:18.012Z,40.80
2022-11-25T10:17:38.173Z,40.70
2022-11-25T10:22:58.435Z,40.60
2022-11-25T10:28:18.500Z,40.70
2022-11-25T10:33:38.633Z,40.70
2022-11-25T10:38:58.832Z,40.70
2022-11-25T10:44:18.935Z,40.70
2022-11-25T10:49:39.036Z,40.70
2022-11-25T10:54:59.299Z,40.70
2022-11-25T11:00:19.360Z,40.70
2022-11-25T11:05:45.226Z,40.70
2022-11-25T11:11:06.159Z,40.70
2022-11-25T11:16:26.414Z,40.70
2022-11-25T11:21:46.463Z,40.80
2022-11-25T11:27:06.562Z,40.70
2022-11-25T11:32:26.614Z,40.80
2022-11-25T11:37:46.857Z,40.80
2022-11-25T11:43:07.049Z,40.80
2022-11-25T11:48:27.464Z,40.80
2022-11-25T11:53:47.504Z,40.80
2022-11-25T11:59:07.724Z,40.80
2022-11-25T12:04:27.879Z,40.80
2022-11-25T12:09:48.045Z,40.80
2022-11-25T12:15:08.287Z,40.80
2022-11-25T12:20:28.557Z,40.80
2022-11-25T12:25:48.554Z,40.80
2022-11-25T12:31:08.766Z,40.80
2022-11-25T12:36:28.919Z,40.80
2022-11-25T12:41:49.154Z,40.80
2022-11-25T12:47:09.284Z,40.80
2022-11-25T12:52:29.331Z,40.80
2022-11-25T12:57:49.612Z,40.80
2022-11-25T13:03:13.890Z,40.80
2022-11-25T13:08:34.158Z,40.80
2022-11-25T13:13:54.736Z,40.80
2022-11-25T13:19:15.022Z,40.90
2022-11-25T13:24:35.557Z,40.90
2022-11-25T13:29:55.822Z,40.90
2022-11-25T13:35:16.008Z,40.80
2022-11-25T13:40:36.213Z,40.80
2022-11-25T13:45:56.530Z,40.80
2022-11-25T13:51:16.705Z,40.80
2022-11-25T13:56:36.798Z,40.80
2022-11-25T14:01:57.033Z,40.80
2022-11-25T14:07:19.827Z,40.80
2022-11-25T14:12:40.329Z,40.80
2022-11-25T14:18:00.344Z,40.80
2022-11-25T14:23:22.696Z,40.80
2022-11-25T14:28:42.750Z,40.80
2022-11-25T14:34:02.965Z,40.90
2022-11-25T14:39:22.967Z,40.90
2022-11-25T14:44:43.106Z,40.90
2022-11-25T14:50:33.187Z,40.90
2022-11-25T14:55:42.911Z,41.00
2022-11-25T15:01:03.021Z,41.00
2022-11-25T15:06:23.148Z,41.00
2022-11-25T15:11:43.251Z,41.00
2022-11-25T15:17:03.428Z,40.90
2022-11-25T15:22:24.651Z,41.00
2022-11-25T15:27:44.861Z,41.00
2022-11-25T15:33:05.099Z,40.90
2022-11-25T15:38:25.338Z,40.90
2022-11-25T15:43:45.378Z,40.90
2022-11-25T15:49:05.562Z,41.00
2022-11-25T15:54:25.696Z,40.90
2022-11-25T15:59:45.761Z,40.90
2022-11-25T16:05:05.883Z,40.90
2022-11-25T16:10:26.157Z,40.90
2022-11-25T16:15:46.310Z,41.00
2022-11-25T16:21:06.470Z,41.00
2022-11-25T16:26:26.406Z,41.00
2022-11-25T16:31:46.634Z,41.00
2022-11-25T16:37:06.577Z,41.00
2022-11-25T16:42:26.782Z,40.90
2022-11-25T16:47:46.745Z,40.90
2022-11-25T16:53:06.961Z,41.00
2022-11-25T16:58:27.114Z,40.90
2022-11-25T17:03:47.189Z,40.90
2022-11-25T17:09:07.200Z,40.90
2022-11-25T17:14:27.347Z,41.00
2022-11-25T17:19:47.373Z,41.00
2022-11-25T17:25:07.611Z,41.00
2022-11-25T17:30:27.704Z,41.00
2022-11-25T17:35:47.925Z,40.90
2022-11-25T17:41:08.069Z,41.00
2022-11-25T17:46:28.303Z,41.00
2022-11-25T17:51:48.243Z,41.00
2022-11-25T17:57:08.386Z,41.00
2022-11-25T18:02:28.484Z,41.00
2022-11-25T18:07:48.557Z,41.10
2022-11-25T18:13:08.695Z,41.10
2022-11-25T18:18:28.855Z,41.20
2022-11-25T18:23:48.979Z,41.20
2022-11-25T18:29:09.261Z,41.10
2022-11-25T18:34:29.288Z,41.10
2022-11-25T18:39:49.460Z,41.10
2022-11-25T18:45:09.474Z,41.20
2022-11-25T18:50:29.628Z,41.30
2022-11-25T18:55:49.644Z,41.30
2022-11-25T19:01:09.875Z,41.30
2022-11-25T19:06:29.988Z,41.30
2022-11-25T19:11:50.147Z,41.30
2022-11-25T19:17:10.996Z,41.40
2022-11-25T19:22:32.966Z,41.40
2022-11-25T19:27:53.111Z,41.40
2022-11-25T19:33:13.311Z,41.40
2022-11-25T19:38:33.478Z,41.40
2022-11-25T19:43:53.794Z,41.40
2022-11-25T19:49:13.944Z,41.40
2022-11-25T19:54:34.414Z,41.40
2022-11-25T19:59:54.361Z,41.60
2022-11-25T20:05:14.555Z,41.60
2022-11-25T20:10:34.708Z,41.60
2022-11-25T20:15:54.829Z,41.60
2022-11-25T20:21:14.909Z,41.60
2022-11-25T20:26:35.163Z,41.60
2022-11-25T20:31:55.243Z,41.60
2022-11-25T20:37:15.400Z,41.60
2022-11-25T20:42:35.677Z,41.70
2022-11-25T20:47:56.038Z,41.80
2022-11-25T20:53:16.152Z,41.70
2022-11-25T20:58:36.681Z,41.70
2022-11-25T21:03:56.894Z,41.70
2022-11-25T21:09:17.096Z,41.70
2022-11-25T21:14:37.548Z,41.70
2022-11-25T21:19:57.937Z,41.70
2022-11-25T21:25:18.122Z,41.70
2022-11-25T21:30:38.399Z,41.60
2022-11-25T21:36:01.551Z,41.60
2022-11-25T21:41:21.614Z,41.60
2022-11-25T21:46:41.747Z,41.60
2022-11-25T21:52:01.807Z,41.70
2022-11-25T21:57:21.905Z,41.70
2022-11-25T22:02:42.052Z,41.70
2022-11-25T22:08:02.337Z,41.70
2022-11-25T22:13:22.363Z,41.70
2022-11-25T22:18:42.422Z,41.70
2022-11-25T22:24:02.663Z,41.70
2022-11-25T22:29:22.717Z,41.70
2022-11-25T22:34:42.896Z,41.60
2022-11-25T22:40:03.015Z,41.70
2022-11-25T22:45:23.261Z,41.70
2022-11-25T22:50:43.294Z,41.70
2022-11-25T22:56:03.594Z,41.70
2022-11-25T23:01:23.675Z,41.70
2022-11-25T23:06:43.881Z,41.70
2022-11-25T23:12:03.955Z,42.30
2022-11-25T23:17:24.202Z,41.70
2022-11-25T23:22:44.274Z,41.70
2022-11-25T23:28:04.377Z,41.70
2022-11-25T23:33:24.474Z,41.70
2022-11-25T23:38:44.772Z,41.70
2022-11-25T23:44:04.850Z,41.70
2022-11-25T23:49:24.980Z,41.70
2022-11-25T23:54:45.121Z,41.70
